createdAt,value
2022-09-11T00:01:31.857Z,16.46
2022-09-11T00:03:58.380Z,16.48
2022-09-11T00:06:30.502Z,16.40
2022-09-11T00:09:01.809Z,16.48
2022-09-11T00:11:32.958Z,16.45
2022-09-11T00:14:00.320Z,16.38
2022-09-11T00:16:36.292Z,16.44
2022-09-11T00:19:06.901Z,16.42
2022-09-11T00:21:33.547Z,16.20
2022-09-11T00:24:00.345Z,16.37
2022-09-11T00:26:27.804Z,16.38
2022-09-11T00:28:55.427Z,16.35
2022-09-11T00:31:25.038Z,16.31
2022-09-11T00:33:52.059Z,16.15
2022-09-11T00:36:24.603Z,16.28
2022-09-11T00:38:51.491Z,16.30
2022-09-11T00:41:27.885Z,16.29
2022-09-11T00:43:56.561Z,16.12
2022-09-11T00:46:26.461Z,16.20
2022-09-11T00:48:53.451Z,16.20
2022-09-11T00:51:32.253Z,16.17
2022-09-11T00:53:59.246Z,16.09
2022-09-11T00:56:31.335Z,16.11
2022-09-11T00:58:59.602Z,16.13
2022-09-11T01:01:26.065Z,16.00
2022-09-11T01:03:52.709Z,16.05
2022-09-11T01:06:21.197Z,15.92
2022-09-11T01:08:47.630Z,16.06
2022-09-11T01:11:26.414Z,16.04
2022-09-11T01:14:24.961Z,16.04
2022-09-11T01:17:05.347Z,15.97
2022-09-11T01:19:59.002Z,15.94
2022-09-11T01:23:12.367Z,15.94
2022-09-11T01:26:15.698Z,15.92
2022-09-11T01:28:52.407Z,15.91
2022-09-11T01:31:24.699Z,15.84
2022-09-11T01:33:59.756Z,15.78
2022-09-11T01:36:34.188Z,15.72
2022-09-11T01:39:05.094Z,15.73
2022-09-11T01:42:03.621Z,15.73
2022-09-11T01:44:39.047Z,15.66
2022-09-11T01:47:13.330Z,15.65
2022-09-11T01:50:09.787Z,15.63
2022-09-11T01:52:54.021Z,15.59
2022-09-11T01:55:55.210Z,15.54
2022-09-11T01:58:29.547Z,15.52
2022-09-11T02:01:09.750Z,15.39
2022-09-11T02:03:47.704Z,15.42
2022-09-11T02:06:27.023Z,15.37
2022-09-11T02:08:58.893Z,15.30
2022-09-11T02:11:28.609Z,15.31
2022-09-11T02:14:10.182Z,15.28
2022-09-11T02:16:51.342Z,15.36
2022-09-11T02:19:20.595Z,15.38
2022-09-11T02:21:48.150Z,15.39
2022-09-11T02:24:15.901Z,15.35
2022-09-11T02:26:54.269Z,15.40
2022-09-11T02:29:21.361Z,15.38
2022-09-11T02:31:49.233Z,15.42
2022-09-11T02:34:17.890Z,15.39
2022-09-11T02:36:48.807Z,15.41
2022-09-11T02:39:24.200Z,15.40
2022-09-11T02:42:23.162Z,15.41
2022-09-11T02:45:01.586Z,15.39
2022-09-11T02:47:28.122Z,15.38
2022-09-11T02:50:29.312Z,15.38
2022-09-11T02:53:07.834Z,15.36
2022-09-11T02:55:52.065Z,15.35
2022-09-11T02:58:53.635Z,15.29
2022-09-11T03:01:20.199Z,15.25
2022-09-11T03:03:47.090Z,15.28
2022-09-11T03:06:22.598Z,15.25
2022-09-11T03:08:50.170Z,15.17
2022-09-11T03:11:17.918Z,15.17
2022-09-11T03:13:45.693Z,15.13
2022-09-11T03:16:12.737Z,15.06
2022-09-11T03:18:39.451Z,15.10
2022-09-11T03:21:06.107Z,15.08
2022-09-11T03:23:32.910Z,15.06
2022-09-11T03:25:59.445Z,15.07
2022-09-11T03:28:26.149Z,14.98
2022-09-11T03:30:53.029Z,14.99
2022-09-11T03:33:19.511Z,15.02
2022-09-11T03:35:47.175Z,15.03
2022-09-11T03:38:13.739Z,14.97
2022-09-11T03:40:43.296Z,14.99
2022-09-11T03:43:12.413Z,14.94
2022-09-11T03:45:39.501Z,14.90
2022-09-11T03:48:06.618Z,14.93
2022-09-11T03:50:33.846Z,14.83
2022-09-11T03:53:00.845Z,14.90
2022-09-11T03:55:27.730Z,14.87
2022-09-11T03:57:54.337Z,14.84
2022-09-11T04:00:20.836Z,14.83
2022-09-11T04:02:47.444Z,14.81
2022-09-11T04:05:14.077Z,14.83
2022-09-11T04:07:41.898Z,14.78
2022-09-11T04:10:08.741Z,14.71
2022-09-11T04:12:35.936Z,14.80
2022-09-11T04:15:02.369Z,14.75
2022-09-11T04:17:31.613Z,14.74
2022-09-11T04:19:58.475Z,14.68
2022-09-11T04:22:24.990Z,14.70
2022-09-11T04:24:51.972Z,14.71
2022-09-11T04:27:19.149Z,14.71
2022-09-11T04:29:46.654Z,14.66
2022-09-11T04:32:13.558Z,14.69
2022-09-11T04:34:40.328Z,14.62
2022-09-11T04:37:07.005Z,14.66
2022-09-11T04:39:34.258Z,14.56
2022-09-11T04:42:02.154Z,14.50
2022-09-11T04:44:29.350Z,14.59
2022-09-11T04:46:56.315Z,14.56
2022-09-11T04:49:23.400Z,14.58
2022-09-11T04:51:50.059Z,14.55
2022-09-11T04:54:18.381Z,14.56
2022-09-11T04:56:44.973Z,14.49
2022-09-11T04:59:16.072Z,14.50
2022-09-11T05:01:44.371Z,14.44
2022-09-11T05:04:13.007Z,14.47
2022-09-11T05:06:39.814Z,14.44
2022-09-11T05:09:09.670Z,14.42
2022-09-11T05:11:38.259Z,14.47
2022-09-11T05:14:06.120Z,14.43
2022-09-11T05:16:34.651Z,14.43
2022-09-11T05:19:03.851Z,14.43
2022-09-11T05:21:32.127Z,14.35
2022-09-11T05:24:01.260Z,14.34
2022-09-11T05:26:31.222Z,14.42
2022-09-11T05:29:00.741Z,14.41
2022-09-11T05:31:28.940Z,14.43
2022-09-11T05:33:56.779Z,14.44
2022-09-11T05:36:23.955Z,14.41
2022-09-11T05:38:50.553Z,14.23
2022-09-11T05:41:17.505Z,14.41
2022-09-11T05:43:44.370Z,14.49
2022-09-11T05:46:12.911Z,14.53
2022-09-11T05:48:39.895Z,14.52
2022-09-11T05:51:10.611Z,14.57
2022-09-11T05:53:38.414Z,14.52
2022-09-11T05:56:16.209Z,14.64
2022-09-11T05:58:46.145Z,14.61
2022-09-11T06:01:15.181Z,14.53
2022-09-11T06:03:42.717Z,14.70
2022-09-11T06:06:11.738Z,14.77
2022-09-11T06:08:51.488Z,14.79
2022-09-11T06:11:19.386Z,14.89
2022-09-11T06:13:48.161Z,14.94
2022-09-11T06:16:20.526Z,15.05
2022-09-11T06:18:49.568Z,15.16
2022-09-11T06:21:20.022Z,15.03
2022-09-11T06:23:47.970Z,15.24
2022-09-11T06:26:18.409Z,15.26
2022-09-11T06:28:45.008Z,15.21
2022-09-11T06:31:16.337Z,15.17
2022-09-11T06:33:46.742Z,15.31
2022-09-11T06:36:18.913Z,15.31
2022-09-11T06:38:46.293Z,15.21
2022-09-11T06:41:17.207Z,15.43
2022-09-11T06:43:44.551Z,15.47
2022-09-11T06:46:14.859Z,15.54
2022-09-11T06:48:43.094Z,15.54
2022-09-11T06:51:15.173Z,15.54
2022-09-11T06:53:42.478Z,15.46
2022-09-11T06:56:13.961Z,15.58
2022-09-11T06:58:41.273Z,15.63
2022-09-11T07:01:11.301Z,15.65
2022-09-11T07:03:41.295Z,15.81
2022-09-11T07:06:07.868Z,15.80
2022-09-11T07:08:34.777Z,15.76
2022-09-11T07:11:06.051Z,15.80
2022-09-11T07:13:37.179Z,16.14
2022-09-11T07:16:09.130Z,16.29
2022-09-11T07:18:43.785Z,16.46
2022-09-11T07:21:21.829Z,16.70
2022-09-11T07:23:54.617Z,16.75
2022-09-11T07:26:23.936Z,16.85
2022-09-11T07:28:52.321Z,16.99
2022-09-11T07:31:29.475Z,17.14
2022-09-11T07:33:57.127Z,17.30
2022-09-11T07:36:26.945Z,17.42
2022-09-11T07:38:54.753Z,17.40
2022-09-11T07:41:23.090Z,17.55
2022-09-11T07:43:54.968Z,17.77
2022-09-11T07:46:22.188Z,17.93
2022-09-11T07:48:49.013Z,18.02
2022-09-11T07:51:18.702Z,18.02
2022-09-11T07:53:47.892Z,18.11
2022-09-11T07:56:19.611Z,18.26
2022-09-11T07:58:46.287Z,18.45
2022-09-11T08:01:18.829Z,18.56
2022-09-11T08:03:45.709Z,18.63
2022-09-11T08:06:18.943Z,18.71
2022-09-11T08:08:54.037Z,18.82
2022-09-11T08:11:21.801Z,18.90
2022-09-11T08:13:53.564Z,19.08
2022-09-11T08:16:22.922Z,19.21
2022-09-11T08:18:49.492Z,19.25
2022-09-11T08:21:16.604Z,19.30
2022-09-11T08:23:44.811Z,19.36
2022-09-11T08:26:12.968Z,19.40
2022-09-11T08:28:43.188Z,19.59
2022-09-11T08:31:11.326Z,19.54
2022-09-11T08:33:38.401Z,19.28
2022-09-11T08:36:08.178Z,19.03
2022-09-11T08:38:35.019Z,19.24
2022-09-11T08:41:27.790Z,19.36
2022-09-11T08:43:59.850Z,19.53
2022-09-11T08:46:33.894Z,19.62
2022-09-11T08:49:14.766Z,19.90
2022-09-11T08:51:42.498Z,20.02
2022-09-11T08:54:20.627Z,20.06
2022-09-11T08:56:48.711Z,20.30
2022-09-11T08:59:23.996Z,20.17
2022-09-11T09:01:53.373Z,20.36
2022-09-11T09:04:29.376Z,20.65
2022-09-11T09:07:20.163Z,20.78
2022-09-11T09:10:03.410Z,20.56
2022-09-11T09:12:38.090Z,20.51
2022-09-11T09:15:04.579Z,20.54
2022-09-11T09:17:56.949Z,20.40
2022-09-11T09:20:36.289Z,20.27
2022-09-11T09:23:19.658Z,20.11
2022-09-11T09:25:47.023Z,20.05
2022-09-11T09:28:26.018Z,20.03
2022-09-11T09:30:57.545Z,19.93
2022-09-11T09:33:44.467Z,19.98
2022-09-11T09:36:28.248Z,19.89
2022-09-11T09:38:55.444Z,19.81
2022-09-11T09:41:43.823Z,20.19
2022-09-11T09:44:25.437Z,20.58
2022-09-11T09:46:54.075Z,20.92
2022-09-11T09:49:25.444Z,21.04
2022-09-11T09:51:55.560Z,21.30
2022-09-11T09:54:27.103Z,21.72
2022-09-11T09:57:02.560Z,22.02
2022-09-11T09:59:52.449Z,22.23
2022-09-11T10:02:49.210Z,22.38
2022-09-11T10:05:42.176Z,22.11
2022-09-11T10:08:31.806Z,22.00
2022-09-11T10:11:04.240Z,21.81
2022-09-11T10:13:41.986Z,21.65
2022-09-11T10:16:26.290Z,21.53
2022-09-11T10:18:54.238Z,21.23
2022-09-11T10:21:23.028Z,21.39
2022-09-11T10:23:55.592Z,21.70
2022-09-11T10:26:43.171Z,21.79
2022-09-11T10:29:18.147Z,22.00
2022-09-11T10:32:16.661Z,22.37
2022-09-11T10:34:46.075Z,22.19
2022-09-11T10:37:15.521Z,21.95
2022-09-11T10:39:46.450Z,21.75
2022-09-11T10:42:18.569Z,21.55
2022-09-11T10:44:46.668Z,21.42
2022-09-11T10:47:19.230Z,21.42
2022-09-11T10:49:49.762Z,21.75
2022-09-11T10:52:18.947Z,22.32
2022-09-11T10:54:59.905Z,22.71
2022-09-11T10:57:41.757Z,23.03
2022-09-11T11:00:24.947Z,23.24
2022-09-11T11:02:58.113Z,23.43
2022-09-11T11:05:45.984Z,23.49
2022-09-11T11:08:45.971Z,23.50
2022-09-11T11:11:22.337Z,23.63
2022-09-11T11:14:15.478Z,23.59
2022-09-11T11:16:50.655Z,23.29
2022-09-11T11:19:20.666Z,23.42
2022-09-11T11:22:04.122Z,23.64
2022-09-11T11:24:49.245Z,23.87
2022-09-11T11:27:24.914Z,24.01
2022-09-11T11:30:15.181Z,24.07
2022-09-11T11:32:59.068Z,23.94
2022-09-11T11:35:34.585Z,23.90
2022-09-11T11:38:14.439Z,23.75
2022-09-11T11:40:48.637Z,23.62
2022-09-11T11:43:21.301Z,23.42
2022-09-11T11:46:02.363Z,23.28
2022-09-11T11:48:49.402Z,23.48
2022-09-11T11:51:23.932Z,23.74
2022-09-11T11:54:09.601Z,24.20
2022-09-11T11:56:49.055Z,24.24
2022-09-11T11:59:27.297Z,24.14
2022-09-11T12:02:00.154Z,23.82
2022-09-11T12:04:42.723Z,23.99
2022-09-11T12:07:36.683Z,24.41
2022-09-11T12:10:06.978Z,24.72
2022-09-11T12:12:47.751Z,24.82
2022-09-11T12:15:23.241Z,24.84
2022-09-11T12:18:03.052Z,24.84
2022-09-11T12:20:31.814Z,25.13
2022-09-11T12:22:59.181Z,25.25
2022-09-11T12:25:26.085Z,25.33
2022-09-11T12:28:33.533Z,25.53
2022-09-11T12:31:08.555Z,25.79
2022-09-11T12:33:40.915Z,25.96
2022-09-11T12:36:36.324Z,26.10
2022-09-11T12:39:25.246Z,25.77
2022-09-11T12:41:51.921Z,25.99
2022-09-11T12:44:31.051Z,25.99
2022-09-11T12:46:57.522Z,26.15
2022-09-11T12:49:27.349Z,25.93
2022-09-11T12:52:00.483Z,26.06
2022-09-11T12:54:39.156Z,26.03
2022-09-11T12:57:09.265Z,26.10
2022-09-11T12:59:46.607Z,26.13
2022-09-11T13:02:37.025Z,26.22
2022-09-11T13:05:05.735Z,26.61
2022-09-11T13:07:47.926Z,26.69
2022-09-11T13:10:33.627Z,26.51
2022-09-11T13:13:03.445Z,26.76
2022-09-11T13:15:36.858Z,26.76
2022-09-11T13:18:31.788Z,26.68
2022-09-11T13:21:14.839Z,26.63
2022-09-11T13:23:43.400Z,26.81
2022-09-11T13:26:33.490Z,27.14
2022-09-11T13:29:01.562Z,27.02
2022-09-11T13:31:45.100Z,26.85
2022-09-11T13:34:17.475Z,26.83
2022-09-11T13:36:47.008Z,26.74
2022-09-11T13:39:15.970Z,26.50
2022-09-11T13:41:44.453Z,26.28
2022-09-11T13:44:49.992Z,26.08
2022-09-11T13:47:21.028Z,26.01
2022-09-11T13:49:50.550Z,25.70
2022-09-11T13:52:18.928Z,25.70
2022-09-11T13:55:11.158Z,25.71
2022-09-11T13:58:02.098Z,25.96
2022-09-11T14:00:42.558Z,26.15
2022-09-11T14:09:02.760Z,25.61
2022-09-11T14:11:33.113Z,25.74
2022-09-11T14:14:11.899Z,25.20
2022-09-11T14:16:52.011Z,24.97
2022-09-11T14:19:28.435Z,25.12
2022-09-11T14:21:54.990Z,25.21
2022-09-11T14:24:38.426Z,25.31
2022-09-11T14:27:30.862Z,25.58
2022-09-11T14:29:57.748Z,25.42
2022-09-11T14:32:39.232Z,25.72
2022-09-11T14:35:09.500Z,25.93
2022-09-11T14:37:45.799Z,26.05
2022-09-11T14:40:18.152Z,26.19
2022-09-11T14:42:45.607Z,26.47
2022-09-11T14:45:24.779Z,26.67
2022-09-11T14:47:52.283Z,26.56
2022-09-11T14:50:20.437Z,26.18
2022-09-11T14:52:47.430Z,26.06
2022-09-11T14:55:16.470Z,26.31
2022-09-11T14:57:43.542Z,26.68
2022-09-11T15:00:14.343Z,26.47
2022-09-11T15:02:43.607Z,26.79
2022-09-11T15:05:16.418Z,26.71
2022-09-11T15:07:45.531Z,26.68
2022-09-11T15:10:14.150Z,26.35
2022-09-11T15:12:40.980Z,26.18
2022-09-11T15:15:08.147Z,26.42
2022-09-11T15:17:36.698Z,26.09
2022-09-11T15:20:09.524Z,26.27
2022-09-11T15:22:38.199Z,26.41
2022-09-11T15:25:05.120Z,26.66
2022-09-11T15:27:31.820Z,26.36
2022-09-11T15:29:58.472Z,26.33
2022-09-11T15:32:25.038Z,26.96
2022-09-11T15:34:54.342Z,27.40
2022-09-11T15:37:21.231Z,27.56
2022-09-11T15:39:49.708Z,27.73
2022-09-11T15:42:17.112Z,28.01
2022-09-11T15:44:46.547Z,28.12
2022-09-11T15:47:13.688Z,28.10
2022-09-11T15:49:42.452Z,28.16
2022-09-11T15:52:08.953Z,28.42
2022-09-11T15:54:35.424Z,28.41
2022-09-11T15:57:02.064Z,28.65
2022-09-11T15:59:30.667Z,28.86
2022-09-11T16:01:57.196Z,29.26
2022-09-11T16:04:28.331Z,29.58
2022-09-11T16:06:55.242Z,29.12
2022-09-11T16:09:24.796Z,29.10
2022-09-11T16:11:51.906Z,29.42
2022-09-11T16:14:21.121Z,29.54
2022-09-11T16:16:48.183Z,29.39
2022-09-11T16:19:21.552Z,29.39
2022-09-11T16:21:49.536Z,29.60
2022-09-11T16:24:16.401Z,29.78
2022-09-11T16:26:44.334Z,29.86
2022-09-11T16:29:12.860Z,29.80
2022-09-11T16:31:40.106Z,29.75
2022-09-11T16:34:07.870Z,29.86
2022-09-11T16:36:42.652Z,29.59
2022-09-11T16:39:13.648Z,28.98
2022-09-11T16:41:40.712Z,28.72
2022-09-11T16:44:10.164Z,28.61
2022-09-11T16:46:42.406Z,28.81
2022-09-11T16:49:15.616Z,29.42
2022-09-11T16:51:47.976Z,29.95
2022-09-11T16:54:15.354Z,30.16
2022-09-11T16:56:45.918Z,30.26
2022-09-11T16:59:12.738Z,30.22
2022-09-11T17:01:40.164Z,29.43
2022-09-11T17:04:06.808Z,28.46
2022-09-11T17:06:33.692Z,27.54
2022-09-11T17:09:01.968Z,26.89
2022-09-11T17:11:31.688Z,26.37
2022-09-11T17:14:01.261Z,25.85
2022-09-11T17:16:30.695Z,25.71
2022-09-11T17:18:58.523Z,25.44
2022-09-11T17:21:37.773Z,25.03
2022-09-11T17:24:07.346Z,25.12
2022-09-11T17:26:34.320Z,24.90
2022-09-11T17:29:05.085Z,24.93
2022-09-11T17:31:32.622Z,24.80
2022-09-11T17:33:59.455Z,24.74
2022-09-11T17:36:26.582Z,24.59
2022-09-11T17:38:53.363Z,24.57
2022-09-11T17:41:21.038Z,24.39
2022-09-11T17:43:48.807Z,24.11
2022-09-11T17:46:18.643Z,24.25
2022-09-11T17:48:46.121Z,24.13
2022-09-11T17:51:16.688Z,24.01
2022-09-11T17:53:46.798Z,23.94
2022-09-11T17:56:16.601Z,23.81
2022-09-11T17:58:44.985Z,23.74
2022-09-11T18:01:16.574Z,23.66
2022-09-11T18:03:44.682Z,23.54
2022-09-11T18:06:36.244Z,23.51
2022-09-11T18:09:13.983Z,23.39
2022-09-11T18:11:45.399Z,23.29
2022-09-11T18:14:13.857Z,23.25
2022-09-11T18:16:43.661Z,23.16
2022-09-11T18:19:12.166Z,23.15
2022-09-11T18:21:38.939Z,23.03
2022-09-11T18:24:10.443Z,22.98
2022-09-11T18:26:40.018Z,22.76
2022-09-11T18:29:12.394Z,22.89
2022-09-11T18:31:51.542Z,22.74
2022-09-11T18:34:24.085Z,22.40
2022-09-11T18:36:51.122Z,22.59
2022-09-11T18:39:18.920Z,22.51
2022-09-11T18:41:47.265Z,22.41
2022-09-11T18:44:19.874Z,22.41
2022-09-11T18:46:48.200Z,22.19
2022-09-11T18:49:16.198Z,21.85
2022-09-11T18:51:43.698Z,21.96
2022-09-11T18:54:16.892Z,21.88
2022-09-11T18:56:49.242Z,21.70
2022-09-11T18:59:16.279Z,21.72
2022-09-11T19:01:43.083Z,21.71
2022-09-11T19:04:11.999Z,21.87
2022-09-11T19:06:39.395Z,21.89
2022-09-11T19:09:10.343Z,21.77
2022-09-11T19:11:37.386Z,21.70
2022-09-11T19:14:10.089Z,21.65
2022-09-11T19:16:38.676Z,21.65
2022-09-11T19:19:07.501Z,21.50
2022-09-11T19:21:34.488Z,21.49
2022-09-11T19:24:02.322Z,21.52
2022-09-11T19:26:40.270Z,21.50
2022-09-11T19:29:08.939Z,21.46
2022-09-11T19:31:36.550Z,21.38
2022-09-11T19:34:03.450Z,21.26
2022-09-11T19:36:32.460Z,21.27
2022-09-11T19:39:00.515Z,21.16
2022-09-11T19:41:30.297Z,21.17
2022-09-11T19:44:02.571Z,21.06
2022-09-11T19:46:30.753Z,21.05
2022-09-11T19:49:00.548Z,21.03
2022-09-11T19:51:30.395Z,20.88
2022-09-11T19:54:00.336Z,21.07
2022-09-11T19:56:27.659Z,21.02
2022-09-11T19:58:54.561Z,21.01
2022-09-11T20:01:23.312Z,20.87
2022-09-11T20:03:53.171Z,20.66
2022-09-11T20:06:22.147Z,20.84
2022-09-11T20:08:50.325Z,20.57
2022-09-11T20:11:22.246Z,20.55
2022-09-11T20:13:49.182Z,20.67
2022-09-11T20:16:20.064Z,20.67
2022-09-11T20:18:46.910Z,20.46
2022-09-11T20:21:15.762Z,20.49
2022-09-11T20:23:43.669Z,20.42
2022-09-11T20:26:16.396Z,20.40
2022-09-11T20:28:44.345Z,20.37
2022-09-11T20:31:20.126Z,20.37
2022-09-11T20:33:50.074Z,20.32
2022-09-11T20:36:18.142Z,20.28
2022-09-11T20:38:49.276Z,19.96
2022-09-11T20:41:15.894Z,19.82
2022-09-11T20:43:42.577Z,19.68
2022-09-11T20:46:09.467Z,19.75
2022-09-11T20:48:36.460Z,19.59
2022-09-11T20:51:11.845Z,19.56
2022-09-11T20:53:41.921Z,19.41
2022-09-11T20:56:11.079Z,19.33
2022-09-11T20:58:38.675Z,19.38
2022-09-11T21:01:07.058Z,19.36
2022-09-11T21:03:34.089Z,19.24
2022-09-11T21:06:08.483Z,19.30
2022-09-11T21:08:35.005Z,19.26
2022-09-11T21:11:05.879Z,19.29
2022-09-11T21:13:40.454Z,19.32
2022-09-11T21:16:10.699Z,19.28
2022-09-11T21:18:38.508Z,19.31
2022-09-11T21:21:05.640Z,19.31
2022-09-11T21:23:32.457Z,19.23
2022-09-11T21:25:59.180Z,19.28
2022-09-11T21:28:25.865Z,19.28
2022-09-11T21:30:52.430Z,19.20
2022-09-11T21:33:18.925Z,19.19
2022-09-11T21:35:52.397Z,19.18
2022-09-11T21:38:24.998Z,19.11
2022-09-11T21:40:52.144Z,19.10
2022-09-11T21:43:18.813Z,19.01
2022-09-11T21:45:45.740Z,18.93
2022-09-11T21:48:12.643Z,18.92
2022-09-11T21:50:40.791Z,18.85
2022-09-11T21:53:08.116Z,18.85
2022-09-11T21:55:39.123Z,18.82
2022-09-11T21:58:06.447Z,18.88
2022-09-11T22:00:40.685Z,18.88
2022-09-11T22:03:10.281Z,18.82
2022-09-11T22:05:43.297Z,18.84
2022-09-11T22:08:11.707Z,18.83
2022-09-11T22:10:43.021Z,18.77
2022-09-11T22:13:12.632Z,18.80
2022-09-11T22:15:40.902Z,18.55
2022-09-11T22:18:07.645Z,18.59
2022-09-11T22:20:36.255Z,18.66
2022-09-11T22:23:03.195Z,18.63
2022-09-11T22:25:29.943Z,18.49
2022-09-11T22:27:57.000Z,18.43
2022-09-11T22:30:24.031Z,18.48
2022-09-11T22:32:50.841Z,18.48
2022-09-11T22:35:17.705Z,18.40
2022-09-11T22:37:44.190Z,18.42
2022-09-11T22:40:10.975Z,18.43
2022-09-11T22:42:38.045Z,18.36
2022-09-11T22:45:05.172Z,18.21
2022-09-11T22:47:32.778Z,18.19
2022-09-11T22:49:59.463Z,18.15
2022-09-11T22:52:25.932Z,18.12
2022-09-11T22:54:52.420Z,17.92
2022-09-11T22:57:19.183Z,18.09
2022-09-11T22:59:47.374Z,18.02
2022-09-11T23:02:15.405Z,18.05
2022-09-11T23:05:04.921Z,18.04
2022-09-11T23:07:31.572Z,18.04
2022-09-11T23:09:58.077Z,17.98
2022-09-11T23:12:24.890Z,17.96
2022-09-11T23:14:53.817Z,17.93
2022-09-11T23:17:20.265Z,17.88
2022-09-11T23:19:48.163Z,17.85
2022-09-11T23:22:14.763Z,17.86
2022-09-11T23:24:41.244Z,17.78
2022-09-11T23:27:07.924Z,17.71
2022-09-11T23:29:34.511Z,17.65
2022-09-11T23:32:01.034Z,17.55
2022-09-11T23:34:27.611Z,17.50
2022-09-11T23:36:54.324Z,17.42
2022-09-11T23:39:20.781Z,17.45
2022-09-11T23:41:47.645Z,17.45
2022-09-11T23:44:14.261Z,17.56
2022-09-11T23:46:40.771Z,17.30
2022-09-11T23:49:07.488Z,17.44
2022-09-11T23:51:34.314Z,17.46
2022-09-11T23:54:00.853Z,17.42
2022-09-11T23:56:27.392Z,17.46
2022-09-11T23:58:54.225Z,17.43
